Have a Safe July 4th! 

Flight Track Log - Related Links

Times and Time Zones

All times are in EST time to prevent confusion due to time zone crossing. See the SWA601 flight status page for this flight to view local times or setup timezone preferences in your user account.

Time Position Orientation Groundspeed Altitude Reporting Facility
EST Latitude Longitude Course Direction KTS MPH feet Rate Location/Type
Fri 10:51:06 PM 47.4689 -122.3114 360° North 158 182 1,500  Level Seattle Center
Fri 10:52:25 PM 47.5353 -122.3108 360° North 216 249 3,600 2,060 Climbing Seattle Center
Fri 10:53:20 PM 47.5917 -122.3489 336° Northwest 265 305 6,100 2,632 Climbing Seattle Center
Fri 10:53:22 PM 47.5914 -122.3469 102° East 248 285 6,100 2,149 Level Seattle Center
Fri 10:54:27 PM 47.6167 -122.4567 289° West 293 337 8,500 2,705 Climbing Seattle Center
Fri 10:55:24 PM 47.5683 -122.5475 232° Southwest 283 326 11,600 2,718 Climbing Seattle Center
Fri 10:56:24 PM 47.5050 -122.6425 225° Southwest 326 375 13,800 2,727 Climbing Seattle Center
Fri 10:57:25 PM 47.4469 -122.7342 227° Southwest 304 350 17,100 2,361 Climbing Seattle Center
Fri 10:58:26 PM 47.3919 -122.8172 226° Southwest 317 365 18,600 2,195 Climbing Seattle Center
Fri 10:59:28 PM 47.3122 -122.9369 226° Southwest 338 389 21,600 2,262 Climbing Seattle Center
Fri 11:00:28 PM 47.2475 -123.0347 226° Southwest 335 386 23,200 1,636 Climbing Seattle Center
Fri 11:01:29 PM 47.1686 -123.1222 217° Southwest 352 405 24,900 1,525 Climbing Seattle Center
Fri 11:02:30 PM 47.0864 -123.2081 215° Southwest 362 417 26,300 1,328 Climbing Seattle Center
Fri 11:03:31 PM 46.9711 -123.2158 183° South 416 479 27,600 1,240 Climbing Seattle Center
Fri 11:04:31 PM 46.8536 -123.2108 178° South 424 488 28,800 1,388 Climbing Seattle Center
Fri 11:05:32 PM 46.7358 -123.2061 178° South 424 488 30,400 1,377 Climbing Seattle Center
Fri 11:06:33 PM 46.6192 -123.2050 180° South 419 482 31,600 1,041 Climbing Seattle Center
Fri 11:07:33 PM 46.5017 -123.2003 178° South 423 487 32,500 934 Climbing Seattle Center
Fri 11:08:35 PM 46.3753 -123.1953 178° South 430 495 33,500 984 Climbing Seattle Center
Fri 11:09:35 PM 46.2556 -123.1917 179° South 431 496 34,500 744 Climbing Seattle Center
Fri 11:10:36 PM 46.1367 -123.1903 180° South 429 494 35,000 246 Climbing Seattle Center
Fri 11:11:37 PM 46.0167 -123.1853 178° South 431 496 35,000  Level Seattle Center
Fri 11:12:37 PM 45.8956 -123.1828 179° South 432 497 35,000  Level Seattle Center
Fri 11:13:38 PM 45.7747 -123.1783 179° South 434 499 35,000  Level Seattle Center
Fri 11:14:39 PM 45.6550 -123.1736 178° South 432 497 35,000  Level Seattle Center
Fri 11:15:39 PM 45.5342 -123.1700 179° South 433 498 35,000  Level Seattle Center
Fri 11:16:40 PM 45.4139 -123.1664 179° South 432 497 35,000  Level Seattle Center
Fri 11:17:41 PM 45.2922 -123.1592 178° South 435 501 35,000  Level Seattle Center
Fri 11:18:42 PM 45.1703 -123.1561 179° South 436 502 35,000  Level Seattle Center
Fri 11:19:42 PM 45.0478 -123.1528 179° South 437 503 35,000  Level Seattle Center
Fri 11:20:43 PM 44.9250 -123.1486 179° South 437 503 35,000  Level Seattle Center
Fri 11:21:44 PM 44.8022 -123.1444 179° South 437 503 35,000  Level Seattle Center
Fri 11:22:44 PM 44.6803 -123.1400 179° South 436 502 35,000  Level Seattle Center
Fri 11:23:45 PM 44.5594 -123.1369 179° South 433 498 35,000  Level Seattle Center
Fri 11:24:46 PM 44.4392 -123.1331 179° South 431 496 35,000  Level Seattle Center
Fri 11:25:46 PM 44.3203 -123.1278 178° South 430 495 35,000  Level Seattle Center
Fri 11:26:47 PM 44.1733 -123.1225 179° South 442 509 35,000  Level Seattle Center
Fri 11:27:48 PM 44.0492 -123.1183 179° South 446 513 35,000  Level Seattle Center
Fri 11:28:48 PM 43.9311 -123.1144 179° South 446 513 35,000  Level Seattle Center
Fri 11:29:49 PM 43.8056 -123.1100 179° South 449 517 35,000  Level Seattle Center
Fri 11:30:50 PM 43.6794 -123.1072 179° South 452 520 35,000  Level Seattle Center
Fri 11:31:50 PM 43.5569 -123.1025 178° South 441 507 35,000  Level Seattle Center
Fri 11:32:51 PM 43.4381 -123.0989 179° South 427 491 35,000  Level Seattle Center
Fri 11:33:52 PM 43.3217 -123.0939 178° South 420 483 35,000  Level Seattle Center
Fri 11:34:52 PM 43.2033 -123.0897 179° South 425 489 35,000  Level Seattle Center
Fri 11:35:53 PM 43.0825 -123.0858 179° South 432 497 35,000  Level Seattle Center
Fri 11:36:54 PM 42.9622 -123.0800 178° South 434 499 35,000  Level Seattle Center
Fri 11:37:54 PM 42.8411 -123.0767 179° South 434 499 35,000  Level Seattle Center
Fri 11:38:55 PM 42.7039 -123.0722 179° South 429 494 35,000  Level Seattle Center
Fri 11:39:56 PM 42.5842 -123.0678 178° South 430 495 35,000  Level Seattle Center
Fri 11:40:56 PM 42.4656 -123.0631 178° South 429 494 35,000  Level Seattle Center
Fri 11:41:57 PM 42.3472 -123.0589 179° South 428 493 35,000  Level Seattle Center
Fri 11:42:58 PM 42.2272 -123.0569 179° South 432 497 35,000  Level Seattle Center
Fri 11:43:58 PM 42.1086 -123.0525 178° South 431 496 35,000  Level Seattle Center
Fri 11:44:59 PM 41.9892 -123.0483 179° South 430 495 35,000  Level Seattle Center
Fri 11:46:00 PM 41.8708 -123.0442 178° South 430 495 35,000  Level Seattle Center
Fri 11:47:00 PM 41.7508 -123.0378 178° South 433 498 35,000  Level Seattle Center
Fri 11:48:01 PM 41.6303 -123.0314 178° South 435 501 35,000  Level Seattle Center
Fri 11:49:01 PM 41.5094 -123.0264 178° South 436 502 35,000  Level Seattle Center
Fri 11:50:02 PM 41.3794 -123.0214 178° South 442 509 35,000  Level Seattle Center
Fri 11:51:03 PM 41.2561 -123.0150 178° South 443 510 35,000 -50 Level Seattle Center
Fri 11:52:03 PM 41.1342 -123.0100 178° South 439 505 34,900 -65 Descending Seattle Center
Fri 11:52:35 PM 41.0606 -123.0064 178° South 437 503 34,900 65 Level Oakland Center
Fri 11:53:36 PM 40.9406 -123.0011 178° South 432 497 35,000 49 Climbing Oakland Center
Fri 11:54:37 PM 40.8211 -122.9939 177° South 431 496 35,000  Level Oakland Center
Fri 11:55:38 PM 40.7050 -122.9906 179° South 423 487 35,000  Level Oakland Center
Fri 11:56:39 PM 40.5869 -122.9842 178° South 427 491 35,000  Level Oakland Center
Fri 11:57:39 PM 40.4656 -122.9781 178° South 435 501 35,000  Level Oakland Center
Fri 11:58:40 PM 40.3419 -122.9717 178° South 445 512 35,000  Level Oakland Center
Fri 11:59:41 PM 40.1953 -122.9650 178° South 444 511 35,000  Level Oakland Center
Sat 12:00:42 AM 40.0711 -122.9581 178° South 449 517 35,000  Level Oakland Center
Sat 12:01:43 AM 39.9458 -122.9533 178° South 453 521 35,000  Level Oakland Center
Sat 12:02:44 AM 39.8192 -122.9472 178° South 459 528 35,000  Level Oakland Center
Sat 12:03:44 AM 39.6958 -122.9422 178° South 449 517 35,000  Level Oakland Center
Sat 12:04:45 AM 39.5703 -122.9361 178° South 452 520 35,000  Level Oakland Center
Sat 12:05:46 AM 39.4372 -122.9311 178° South 449 517 35,000  Level Oakland Center
Sat 12:06:47 AM 39.3125 -122.9244 178° South 449 517 35,000  Level Oakland Center
Sat 12:07:48 AM 39.1883 -122.9183 178° South 448 516 35,000  Level Oakland Center
Sat 12:08:49 AM 39.0636 -122.9122 178° South 449 517 35,000 -1,082 Level Oakland Center
Sat 12:09:50 AM 38.9392 -122.9058 178° South 448 516 32,800 -2,361 Descending Oakland Center
Sat 12:10:51 AM 38.8153 -122.9019 179° South 447 514 30,200 -2,361 Descending Oakland Center
Sat 12:11:52 AM 38.6975 -122.8956 178° South 430 495 28,000 -2,132 Descending Oakland Center
Sat 12:12:52 AM 38.5836 -122.8911 178° South 417 480 25,900 -2,083 Descending Oakland Center
Sat 12:13:53 AM 38.4728 -122.8853 178° South 404 465 23,800 -2,016 Descending Oakland Center
Sat 12:14:54 AM 38.3631 -122.8811 178° South 399 459 21,800 -2,164 Descending Oakland Center
Sat 12:15:55 AM 38.2389 -122.8739 177° South 380 437 19,400 -2,066 Descending Oakland Center
Sat 12:16:56 AM 38.1408 -122.8703 178° South 359 413 17,600 -1,918 Descending Oakland Center
Sat 12:17:57 AM 38.0464 -122.8592 175° South 348 400 15,500 -1,918 Descending Oakland Center
Sat 12:18:58 AM 37.9544 -122.8344 168° South 344 396 13,700 -1,770 Descending Oakland Center
Sat 12:19:59 AM 37.8661 -122.8103 168° South 333 383 11,900 -1,377 Descending Oakland Center
Sat 12:21:00 AM 37.7811 -122.7883 168° South 318 366 10,900 -492 Descending Oakland Center
Sat 12:22:01 AM 37.7164 -122.7286 144° Southeast 303 349 10,900  Level Oakland Center
Sat 12:23:02 AM 37.6583 -122.6467 132° Southeast 314 361 10,900 -541 Level Oakland Center
Sat 12:24:03 AM 37.5878 -122.5494 132° Southeast 316 364 9,800 -1,438 Descending Oakland Center
Sat 12:25:03 AM 37.5300 -122.4717 133° Southeast 309 356 8,000 -1,438 Descending Oakland Center
Sat 12:26:04 AM 37.4744 -122.3944 132° Southeast 302 348 6,900 -541 Descending Oakland Center
Sat 12:27:05 AM 37.4217 -122.3231 133° Southeast 285 328 6,900  Level Oakland Center
Sat 12:28:06 AM 37.3717 -122.2567 133° Southeast 266 306 6,900 -443 Level Oakland Center
Sat 12:29:07 AM 37.3108 -122.2106 149° Southeast 255 293 6,000 -639 Descending Oakland Center
Sat 12:30:08 AM 37.2633 -122.1492 134° Southeast 265 305 5,600 -492 Descending Oakland Center
Sat 12:31:09 AM 37.3053 -122.0725 55° Northeast 274 315 5,000 -694 Descending Oakland Center
Sat 12:32:09 AM 37.3561 -122.0047 47° Northeast 279 321 4,200 -1,053 Descending Oakland Center
Sat 12:33:03 AM 37.4000 -122.0500 321° Northwest 227 261 3,000 -632 Descending Northern Cal TRACON
Sat 12:34:03 AM 37.4500 -122.1000 322° Northwest 192 221 3,000 -150 Level Northern Cal TRACON
Sat 12:35:03 AM 37.4833 -122.0667 38° Northeast 230 265 2,700 -550 Descending Northern Cal TRACON
Sat 12:36:03 AM 37.4500 -122.0333 142° Southeast 172 198 1,900 -600 Descending Northern Cal TRACON
Sat 12:37:03 AM 37.4167 -122.0000 142° Southeast 131 151 1,500 -550 Descending Northern Cal TRACON
Sat 12:38:03 AM 37.4000 -121.9667 122° Southeast 118 136 800 -650 Descending Northern Cal TRACON
Sat 12:39:03 AM 37.3667 -121.9333 142° Southeast 125 144 200 -600 Descending Northern Cal TRACON

Login

Don't have an account? Register now (free) for customized features, flight alerts, and more!